sensor_id;sensor_type;location;lat;lon;timestamp;P1;durP1;ratioP1;P2;durP2;ratioP2
33780;SDS011;20097;50.832;19.100;2023-06-04T00:00:38;8.13;;;3.80;;
33780;SDS011;20097;50.832;19.100;2023-06-04T00:05:42;5.72;;;3.17;;
33780;SDS011;20097;50.832;19.100;2023-06-04T00:10:48;6.33;;;3.53;;
33780;SDS011;20097;50.832;19.100;2023-06-04T00:15:52;6.00;;;3.22;;
33780;SDS011;20097;50.832;19.100;2023-06-04T00:20:57;9.73;;;3.83;;
33780;SDS011;20097;50.832;19.100;2023-06-04T00:26:03;6.80;;;3.50;;
33780;SDS011;20097;50.832;19.100;2023-06-04T00:31:07;6.32;;;3.67;;
33780;SDS011;20097;50.832;19.100;2023-06-04T00:36:12;7.60;;;4.00;;
33780;SDS011;20097;50.832;19.100;2023-06-04T00:41:19;7.57;;;4.05;;
33780;SDS011;20097;50.832;19.100;2023-06-04T00:46:24;7.60;;;4.13;;
33780;SDS011;20097;50.832;19.100;2023-06-04T00:51:29;8.45;;;3.65;;
33780;SDS011;20097;50.832;19.100;2023-06-04T00:56:37;9.43;;;3.85;;
33780;SDS011;20097;50.832;19.100;2023-06-04T01:01:43;6.72;;;3.58;;
33780;SDS011;20097;50.832;19.100;2023-06-04T01:06:55;7.53;;;3.67;;
33780;SDS011;20097;50.832;19.100;2023-06-04T01:12:05;6.35;;;3.70;;
33780;SDS011;20097;50.832;19.100;2023-06-04T01:17:11;9.82;;;3.63;;
33780;SDS011;20097;50.832;19.100;2023-06-04T01:22:33;5.75;;;3.75;;
33780;SDS011;20097;50.832;19.100;2023-06-04T01:27:44;6.50;;;3.47;;
33780;SDS011;20097;50.832;19.100;2023-06-04T01:32:54;6.03;;;3.53;;
33780;SDS011;20097;50.832;19.100;2023-06-04T01:38:00;9.27;;;3.78;;
33780;SDS011;20097;50.832;19.100;2023-06-04T01:43:06;6.30;;;3.85;;
33780;SDS011;20097;50.832;19.100;2023-06-04T01:48:11;8.25;;;3.72;;
33780;SDS011;20097;50.832;19.100;2023-06-04T01:53:15;4.97;;;2.95;;
33780;SDS011;20097;50.832;19.100;2023-06-04T01:58:21;9.63;;;3.35;;
33780;SDS011;20097;50.832;19.100;2023-06-04T02:03:29;3.92;;;2.70;;
33780;SDS011;20097;50.832;19.100;2023-06-04T02:08:39;5.43;;;3.10;;
33780;SDS011;20097;50.832;19.100;2023-06-04T02:13:46;8.40;;;3.13;;
33780;SDS011;20097;50.832;19.100;2023-06-04T02:18:50;4.30;;;2.67;;
33780;SDS011;20097;50.832;19.100;2023-06-04T02:23:54;5.82;;;2.90;;
33780;SDS011;20097;50.832;19.100;2023-06-04T02:29:00;4.85;;;2.90;;
33780;SDS011;20097;50.832;19.100;2023-06-04T02:34:05;5.97;;;2.90;;
33780;SDS011;20097;50.832;19.100;2023-06-04T02:39:09;4.57;;;2.85;;
33780;SDS011;20097;50.832;19.100;2023-06-04T02:44:15;7.57;;;3.00;;
33780;SDS011;20097;50.832;19.100;2023-06-04T02:49:19;8.25;;;3.60;;
33780;SDS011;20097;50.832;19.100;2023-06-04T02:54:24;4.15;;;3.08;;
33780;SDS011;20097;50.832;19.100;2023-06-04T02:59:30;8.05;;;3.17;;
33780;SDS011;20097;50.832;19.100;2023-06-04T03:04:34;4.75;;;3.30;;
33780;SDS011;20097;50.832;19.100;2023-06-04T03:14:45;6.18;;;3.47;;
33780;SDS011;20097;50.832;19.100;2023-06-04T03:19:49;5.68;;;3.15;;
33780;SDS011;20097;50.832;19.100;2023-06-04T03:24:54;5.25;;;3.10;;
33780;SDS011;20097;50.832;19.100;2023-06-04T03:30:00;5.70;;;2.95;;
33780;SDS011;20097;50.832;19.100;2023-06-04T03:35:14;7.00;;;3.17;;
33780;SDS011;20097;50.832;19.100;2023-06-04T03:40:19;6.70;;;3.97;;
33780;SDS011;20097;50.832;19.100;2023-06-04T03:45:25;7.70;;;3.67;;
33780;SDS011;20097;50.832;19.100;2023-06-04T03:50:31;9.30;;;3.50;;
33780;SDS011;20097;50.832;19.100;2023-06-04T03:55:35;7.18;;;3.45;;
33780;SDS011;20097;50.832;19.100;2023-06-04T04:00:44;6.75;;;3.45;;
33780;SDS011;20097;50.832;19.100;2023-06-04T04:05:49;8.57;;;3.97;;
33780;SDS011;20097;50.832;19.100;2023-06-04T04:10:54;6.55;;;2.92;;
33780;SDS011;20097;50.832;19.100;2023-06-04T04:16:00;4.78;;;2.60;;
33780;SDS011;20097;50.832;19.100;2023-06-04T04:21:04;4.28;;;2.95;;
33780;SDS011;20097;50.832;19.100;2023-06-04T04:26:10;5.57;;;2.65;;
33780;SDS011;20097;50.832;19.100;2023-06-04T04:31:22;5.10;;;2.85;;
33780;SDS011;20097;50.832;19.100;2023-06-04T04:36:28;5.65;;;3.30;;
33780;SDS011;20097;50.832;19.100;2023-06-04T04:41:36;4.38;;;2.90;;
33780;SDS011;20097;50.832;19.100;2023-06-04T04:46:43;7.03;;;2.70;;
33780;SDS011;20097;50.832;19.100;2023-06-04T04:51:47;6.22;;;3.00;;
33780;SDS011;20097;50.832;19.100;2023-06-04T04:56:52;8.05;;;3.20;;
33780;SDS011;20097;50.832;19.100;2023-06-04T05:02:17;5.32;;;3.15;;
33780;SDS011;20097;50.832;19.100;2023-06-04T05:07:22;6.30;;;2.95;;
33780;SDS011;20097;50.832;19.100;2023-06-04T05:12:29;4.70;;;2.83;;
33780;SDS011;20097;50.832;19.100;2023-06-04T05:17:38;5.97;;;2.70;;
33780;SDS011;20097;50.832;19.100;2023-06-04T05:22:45;4.88;;;2.78;;
33780;SDS011;20097;50.832;19.100;2023-06-04T05:27:51;4.70;;;2.47;;
33780;SDS011;20097;50.832;19.100;2023-06-04T05:32:58;6.65;;;2.65;;
33780;SDS011;20097;50.832;19.100;2023-06-04T05:38:04;3.85;;;2.42;;
33780;SDS011;20097;50.832;19.100;2023-06-04T05:43:09;6.72;;;2.83;;
33780;SDS011;20097;50.832;19.100;2023-06-04T05:48:15;6.53;;;3.00;;
33780;SDS011;20097;50.832;19.100;2023-06-04T05:53:19;4.00;;;2.08;;
33780;SDS011;20097;50.832;19.100;2023-06-04T05:58:25;9.02;;;2.08;;
33780;SDS011;20097;50.832;19.100;2023-06-04T06:03:32;4.05;;;2.40;;
33780;SDS011;20097;50.832;19.100;2023-06-04T06:08:36;6.07;;;2.38;;
33780;SDS011;20097;50.832;19.100;2023-06-04T06:13:42;4.68;;;2.53;;
33780;SDS011;20097;50.832;19.100;2023-06-04T06:18:49;3.25;;;1.88;;
33780;SDS011;20097;50.832;19.100;2023-06-04T06:23:54;5.78;;;2.13;;
33780;SDS011;20097;50.832;19.100;2023-06-04T06:28:59;4.30;;;2.33;;
33780;SDS011;20097;50.832;19.100;2023-06-04T06:34:06;3.92;;;2.42;;
33780;SDS011;20097;50.832;19.100;2023-06-04T06:39:10;4.63;;;2.17;;
33780;SDS011;20097;50.832;19.100;2023-06-04T06:44:16;4.40;;;2.13;;
33780;SDS011;20097;50.832;19.100;2023-06-04T06:49:22;5.95;;;2.85;;
33780;SDS011;20097;50.832;19.100;2023-06-04T06:54:26;6.88;;;2.60;;
33780;SDS011;20097;50.832;19.100;2023-06-04T06:59:30;11.77;;;4.07;;
33780;SDS011;20097;50.832;19.100;2023-06-04T07:04:36;4.55;;;2.40;;
33780;SDS011;20097;50.832;19.100;2023-06-04T07:09:40;6.90;;;2.58;;
33780;SDS011;20097;50.832;19.100;2023-06-04T07:14:45;3.15;;;1.92;;
33780;SDS011;20097;50.832;19.100;2023-06-04T07:19:50;4.25;;;1.95;;
33780;SDS011;20097;50.832;19.100;2023-06-04T07:24:55;3.67;;;1.50;;
33780;SDS011;20097;50.832;19.100;2023-06-04T07:29:59;2.63;;;0.98;;
33780;SDS011;20097;50.832;19.100;2023-06-04T07:35:07;5.00;;;2.20;;
33780;SDS011;20097;50.832;19.100;2023-06-04T07:40:12;2.05;;;1.85;;
33780;SDS011;20097;50.832;19.100;2023-06-04T07:45:17;7.40;;;1.73;;
33780;SDS011;20097;50.832;19.100;2023-06-04T07:50:23;9.77;;;2.33;;
33780;SDS011;20097;50.832;19.100;2023-06-04T07:55:27;5.93;;;1.70;;
33780;SDS011;20097;50.832;19.100;2023-06-04T08:00:32;3.67;;;2.05;;
33780;SDS011;20097;50.832;19.100;2023-06-04T08:05:38;2.45;;;1.75;;
33780;SDS011;20097;50.832;19.100;2023-06-04T08:10:42;7.07;;;2.90;;
33780;SDS011;20097;50.832;19.100;2023-06-04T08:15:47;5.47;;;1.92;;
33780;SDS011;20097;50.832;19.100;2023-06-04T08:21:12;2.87;;;1.47;;
33780;SDS011;20097;50.832;19.100;2023-06-04T08:26:34;5.72;;;2.72;;
33780;SDS011;20097;50.832;19.100;2023-06-04T08:31:45;3.88;;;1.30;;
33780;SDS011;20097;50.832;19.100;2023-06-04T08:37:03;2.67;;;1.75;;
33780;SDS011;20097;50.832;19.100;2023-06-04T08:42:08;5.93;;;2.10;;
33780;SDS011;20097;50.832;19.100;2023-06-04T08:52:30;3.55;;;2.17;;
33780;SDS011;20097;50.832;19.100;2023-06-04T08:57:35;2.05;;;1.48;;
33780;SDS011;20097;50.832;19.100;2023-06-04T09:02:42;7.43;;;1.95;;
33780;SDS011;20097;50.832;19.100;2023-06-04T09:07:52;4.10;;;1.88;;
33780;SDS011;20097;50.832;19.100;2023-06-04T09:12:59;2.13;;;1.80;;
33780;SDS011;20097;50.832;19.100;2023-06-04T09:18:07;4.93;;;1.30;;
33780;SDS011;20097;50.832;19.100;2023-06-04T09:28:18;2.28;;;1.55;;
33780;SDS011;20097;50.832;19.100;2023-06-04T09:33:24;4.43;;;1.80;;
33780;SDS011;20097;50.832;19.100;2023-06-04T09:38:34;2.60;;;1.67;;
33780;SDS011;20097;50.832;19.100;2023-06-04T09:43:42;2.67;;;2.10;;
33780;SDS011;20097;50.832;19.100;2023-06-04T09:48:47;3.75;;;1.70;;
33780;SDS011;20097;50.832;19.100;2023-06-04T09:53:55;2.50;;;1.77;;
33780;SDS011;20097;50.832;19.100;2023-06-04T09:59:01;4.55;;;1.50;;
33780;SDS011;20097;50.832;19.100;2023-06-04T10:09:15;2.25;;;1.73;;
33780;SDS011;20097;50.832;19.100;2023-06-04T10:14:24;2.03;;;1.48;;
33780;SDS011;20097;50.832;19.100;2023-06-04T10:24:44;2.75;;;1.70;;
33780;SDS011;20097;50.832;19.100;2023-06-04T10:29:49;1.50;;;1.27;;
33780;SDS011;20097;50.832;19.100;2023-06-04T10:34:54;1.73;;;1.48;;
33780;SDS011;20097;50.832;19.100;2023-06-04T10:40:01;4.78;;;1.80;;
33780;SDS011;20097;50.832;19.100;2023-06-04T10:45:08;3.28;;;1.58;;
33780;SDS011;20097;50.832;19.100;2023-06-04T10:50:14;3.40;;;1.77;;
33780;SDS011;20097;50.832;19.100;2023-06-04T11:00:34;7.88;;;2.20;;
33780;SDS011;20097;50.832;19.100;2023-06-04T11:10:46;10.75;;;2.15;;
33780;SDS011;20097;50.832;19.100;2023-06-04T11:15:51;3.83;;;1.80;;
33780;SDS011;20097;50.832;19.100;2023-06-04T11:20:58;3.78;;;1.70;;
33780;SDS011;20097;50.832;19.100;2023-06-04T11:26:06;3.65;;;1.83;;
33780;SDS011;20097;50.832;19.100;2023-06-04T11:31:10;4.45;;;1.52;;
33780;SDS011;20097;50.832;19.100;2023-06-04T11:36:22;3.05;;;1.30;;
33780;SDS011;20097;50.832;19.100;2023-06-04T11:41:28;1.52;;;1.30;;
33780;SDS011;20097;50.832;19.100;2023-06-04T11:46:34;4.82;;;1.75;;
33780;SDS011;20097;50.832;19.100;2023-06-04T11:51:45;3.97;;;1.83;;
33780;SDS011;20097;50.832;19.100;2023-06-04T11:56:51;2.67;;;1.67;;
33780;SDS011;20097;50.832;19.100;2023-06-04T12:01:56;3.70;;;1.65;;
33780;SDS011;20097;50.832;19.100;2023-06-04T12:07:02;3.05;;;1.67;;
33780;SDS011;20097;50.832;19.100;2023-06-04T12:12:10;6.65;;;1.70;;
33780;SDS011;20097;50.832;19.100;2023-06-04T12:17:15;3.33;;;1.45;;
33780;SDS011;20097;50.832;19.100;2023-06-04T12:27:26;1.93;;;1.57;;
33780;SDS011;20097;50.832;19.100;2023-06-04T12:32:34;2.80;;;1.70;;
33780;SDS011;20097;50.832;19.100;2023-06-04T12:37:39;4.47;;;1.75;;
33780;SDS011;20097;50.832;19.100;2023-06-04T12:42:45;2.55;;;1.58;;
33780;SDS011;20097;50.832;19.100;2023-06-04T12:47:49;1.95;;;1.52;;
33780;SDS011;20097;50.832;19.100;2023-06-04T12:52:54;4.45;;;2.00;;
33780;SDS011;20097;50.832;19.100;2023-06-04T12:58:00;3.65;;;1.60;;
33780;SDS011;20097;50.832;19.100;2023-06-04T13:03:05;2.80;;;1.55;;
33780;SDS011;20097;50.832;19.100;2023-06-04T13:08:11;1.88;;;1.70;;
33780;SDS011;20097;50.832;19.100;2023-06-04T13:13:17;3.08;;;1.55;;
33780;SDS011;20097;50.832;19.100;2023-06-04T13:18:22;2.25;;;1.85;;
33780;SDS011;20097;50.832;19.100;2023-06-04T13:23:27;3.33;;;1.52;;
33780;SDS011;20097;50.832;19.100;2023-06-04T13:28:52;1.97;;;1.30;;
33780;SDS011;20097;50.832;19.100;2023-06-04T13:33:56;4.00;;;1.33;;
33780;SDS011;20097;50.832;19.100;2023-06-04T13:39:07;2.83;;;1.80;;
33780;SDS011;20097;50.832;19.100;2023-06-04T13:44:13;3.10;;;1.65;;
33780;SDS011;20097;50.832;19.100;2023-06-04T13:49:18;2.53;;;1.63;;
33780;SDS011;20097;50.832;19.100;2023-06-04T13:54:23;2.47;;;1.70;;
33780;SDS011;20097;50.832;19.100;2023-06-04T13:59:29;1.45;;;1.35;;
33780;SDS011;20097;50.832;19.100;2023-06-04T14:04:34;3.22;;;1.58;;
33780;SDS011;20097;50.832;19.100;2023-06-04T14:09:38;3.97;;;1.88;;
33780;SDS011;20097;50.832;19.100;2023-06-04T14:14:44;2.40;;;1.38;;
33780;SDS011;20097;50.832;19.100;2023-06-04T14:19:49;2.17;;;1.63;;
33780;SDS011;20097;50.832;19.100;2023-06-04T14:25:02;3.13;;;1.55;;
33780;SDS011;20097;50.832;19.100;2023-06-04T14:30:10;2.10;;;1.67;;
33780;SDS011;20097;50.832;19.100;2023-06-04T14:35:15;3.83;;;1.60;;
33780;SDS011;20097;50.832;19.100;2023-06-04T14:40:20;2.22;;;1.33;;
33780;SDS011;20097;50.832;19.100;2023-06-04T14:45:26;1.63;;;1.52;;
33780;SDS011;20097;50.832;19.100;2023-06-04T14:50:30;4.00;;;1.80;;
33780;SDS011;20097;50.832;19.100;2023-06-04T14:55:36;1.80;;;1.52;;
33780;SDS011;20097;50.832;19.100;2023-06-04T15:00:42;2.55;;;1.63;;
33780;SDS011;20097;50.832;19.100;2023-06-04T15:05:47;3.53;;;1.60;;
33780;SDS011;20097;50.832;19.100;2023-06-04T15:10:51;2.47;;;1.50;;
33780;SDS011;20097;50.832;19.100;2023-06-04T15:15:57;4.60;;;1.77;;
33780;SDS011;20097;50.832;19.100;2023-06-04T15:21:02;2.70;;;1.60;;
33780;SDS011;20097;50.832;19.100;2023-06-04T15:26:06;1.70;;;1.40;;
33780;SDS011;20097;50.832;19.100;2023-06-04T15:31:12;1.65;;;1.10;;
33780;SDS011;20097;50.832;19.100;2023-06-04T15:36:18;3.72;;;1.73;;
33780;SDS011;20097;50.832;19.100;2023-06-04T15:41:22;1.52;;;1.42;;
33780;SDS011;20097;50.832;19.100;2023-06-04T15:46:28;3.20;;;1.35;;
33780;SDS011;20097;50.832;19.100;2023-06-04T15:51:33;1.65;;;1.30;;
33780;SDS011;20097;50.832;19.100;2023-06-04T15:56:39;2.55;;;1.50;;
33780;SDS011;20097;50.832;19.100;2023-06-04T16:01:44;4.32;;;1.67;;
33780;SDS011;20097;50.832;19.100;2023-06-04T16:06:49;5.35;;;2.05;;
33780;SDS011;20097;50.832;19.100;2023-06-04T16:11:54;2.15;;;1.40;;
33780;SDS011;20097;50.832;19.100;2023-06-04T16:16:59;3.10;;;1.63;;
33780;SDS011;20097;50.832;19.100;2023-06-04T16:22:05;2.03;;;1.33;;
33780;SDS011;20097;50.832;19.100;2023-06-04T16:27:09;3.60;;;1.70;;
33780;SDS011;20097;50.832;19.100;2023-06-04T16:32:15;4.07;;;1.63;;
33780;SDS011;20097;50.832;19.100;2023-06-04T16:37:20;2.13;;;1.23;;
33780;SDS011;20097;50.832;19.100;2023-06-04T16:42:25;4.88;;;1.50;;
33780;SDS011;20097;50.832;19.100;2023-06-04T16:47:31;2.00;;;1.40;;
33780;SDS011;20097;50.832;19.100;2023-06-04T16:52:36;4.25;;;1.35;;
33780;SDS011;20097;50.832;19.100;2023-06-04T17:02:47;3.90;;;1.30;;
33780;SDS011;20097;50.832;19.100;2023-06-04T17:07:52;1.90;;;1.50;;
33780;SDS011;20097;50.832;19.100;2023-06-04T17:12:57;2.72;;;1.13;;
33780;SDS011;20097;50.832;19.100;2023-06-04T17:18:04;7.50;;;1.50;;
33780;SDS011;20097;50.832;19.100;2023-06-04T17:23:19;3.00;;;1.40;;
33780;SDS011;20097;50.832;19.100;2023-06-04T17:28:25;4.85;;;1.63;;
33780;SDS011;20097;50.832;19.100;2023-06-04T17:33:31;3.58;;;1.83;;
33780;SDS011;20097;50.832;19.100;2023-06-04T17:38:36;6.53;;;2.13;;
33780;SDS011;20097;50.832;19.100;2023-06-04T17:43:40;3.10;;;1.52;;
33780;SDS011;20097;50.832;19.100;2023-06-04T17:48:46;2.53;;;1.85;;
33780;SDS011;20097;50.832;19.100;2023-06-04T17:53:51;5.22;;;2.10;;
33780;SDS011;20097;50.832;19.100;2023-06-04T17:58:56;1.73;;;1.38;;
33780;SDS011;20097;50.832;19.100;2023-06-04T18:04:02;4.18;;;1.58;;
33780;SDS011;20097;50.832;19.100;2023-06-04T18:09:06;6.53;;;1.95;;
33780;SDS011;20097;50.832;19.100;2023-06-04T18:14:11;6.93;;;1.80;;
33780;SDS011;20097;50.832;19.100;2023-06-04T18:24:25;2.15;;;1.50;;
33780;SDS011;20097;50.832;19.100;2023-06-04T18:29:30;2.75;;;1.90;;
33780;SDS011;20097;50.832;19.100;2023-06-04T18:34:36;3.10;;;2.22;;
33780;SDS011;20097;50.832;19.100;2023-06-04T18:39:41;3.40;;;1.98;;
33780;SDS011;20097;50.832;19.100;2023-06-04T18:44:45;6.53;;;1.88;;
33780;SDS011;20097;50.832;19.100;2023-06-04T18:54:58;9.20;;;2.13;;
33780;SDS011;20097;50.832;19.100;2023-06-04T19:00:03;7.35;;;2.20;;
33780;SDS011;20097;50.832;19.100;2023-06-04T19:05:15;4.38;;;2.20;;
33780;SDS011;20097;50.832;19.100;2023-06-04T19:10:19;4.05;;;2.60;;
33780;SDS011;20097;50.832;19.100;2023-06-04T19:15:24;11.18;;;3.53;;
33780;SDS011;20097;50.832;19.100;2023-06-04T19:20:30;2.63;;;2.00;;
33780;SDS011;20097;50.832;19.100;2023-06-04T19:25:34;4.50;;;2.88;;
33780;SDS011;20097;50.832;19.100;2023-06-04T19:30:39;3.78;;;2.60;;
33780;SDS011;20097;50.832;19.100;2023-06-04T19:35:44;5.70;;;3.00;;
33780;SDS011;20097;50.832;19.100;2023-06-04T19:40:49;4.72;;;2.92;;
33780;SDS011;20097;50.832;19.100;2023-06-04T19:45:53;4.30;;;2.45;;
33780;SDS011;20097;50.832;19.100;2023-06-04T19:51:00;4.85;;;2.65;;
33780;SDS011;20097;50.832;19.100;2023-06-04T19:56:04;4.35;;;2.70;;
33780;SDS011;20097;50.832;19.100;2023-06-04T20:01:09;7.82;;;3.30;;
33780;SDS011;20097;50.832;19.100;2023-06-04T20:06:15;5.70;;;3.05;;
33780;SDS011;20097;50.832;19.100;2023-06-04T20:11:21;6.22;;;3.75;;
33780;SDS011;20097;50.832;19.100;2023-06-04T20:16:25;6.78;;;3.83;;
33780;SDS011;20097;50.832;19.100;2023-06-04T20:21:32;4.85;;;3.42;;
33780;SDS011;20097;50.832;19.100;2023-06-04T20:26:37;12.38;;;3.10;;
33780;SDS011;20097;50.832;19.100;2023-06-04T20:31:42;4.63;;;2.83;;
33780;SDS011;20097;50.832;19.100;2023-06-04T20:36:49;3.65;;;2.42;;
33780;SDS011;20097;50.832;19.100;2023-06-04T20:41:57;3.67;;;2.80;;
33780;SDS011;20097;50.832;19.100;2023-06-04T20:47:02;8.45;;;2.97;;
33780;SDS011;20097;50.832;19.100;2023-06-04T20:52:09;3.72;;;2.47;;
33780;SDS011;20097;50.832;19.100;2023-06-04T20:57:14;10.20;;;2.85;;
33780;SDS011;20097;50.832;19.100;2023-06-04T21:02:19;6.93;;;2.55;;
33780;SDS011;20097;50.832;19.100;2023-06-04T21:07:24;5.22;;;2.47;;
33780;SDS011;20097;50.832;19.100;2023-06-04T21:12:29;5.15;;;2.58;;
33780;SDS011;20097;50.832;19.100;2023-06-04T21:17:34;6.03;;;2.80;;
33780;SDS011;20097;50.832;19.100;2023-06-04T21:22:40;5.50;;;2.70;;
33780;SDS011;20097;50.832;19.100;2023-06-04T21:27:44;3.88;;;2.72;;
33780;SDS011;20097;50.832;19.100;2023-06-04T21:32:51;9.13;;;3.58;;
33780;SDS011;20097;50.832;19.100;2023-06-04T21:37:58;5.72;;;2.78;;
33780;SDS011;20097;50.832;19.100;2023-06-04T21:43:02;10.65;;;2.95;;
33780;SDS011;20097;50.832;19.100;2023-06-04T21:53:14;6.35;;;2.55;;
33780;SDS011;20097;50.832;19.100;2023-06-04T21:58:18;5.70;;;2.92;;
33780;SDS011;20097;50.832;19.100;2023-06-04T22:03:23;5.32;;;3.10;;
33780;SDS011;20097;50.832;19.100;2023-06-04T22:13:33;4.20;;;2.45;;
33780;SDS011;20097;50.832;19.100;2023-06-04T22:18:39;5.47;;;2.58;;
33780;SDS011;20097;50.832;19.100;2023-06-04T22:23:51;6.25;;;2.85;;
33780;SDS011;20097;50.832;19.100;2023-06-04T22:28:55;4.05;;;2.35;;
33780;SDS011;20097;50.832;19.100;2023-06-04T22:34:00;5.00;;;2.25;;
33780;SDS011;20097;50.832;19.100;2023-06-04T22:39:06;3.80;;;2.40;;
33780;SDS011;20097;50.832;19.100;2023-06-04T22:44:10;3.45;;;2.08;;
33780;SDS011;20097;50.832;19.100;2023-06-04T22:49:15;3.70;;;2.20;;
33780;SDS011;20097;50.832;19.100;2023-06-04T22:54:21;8.95;;;2.33;;
33780;SDS011;20097;50.832;19.100;2023-06-04T22:59:25;3.13;;;2.42;;
33780;SDS011;20097;50.832;19.100;2023-06-04T23:04:30;6.35;;;2.25;;
33780;SDS011;20097;50.832;19.100;2023-06-04T23:09:36;6.13;;;2.65;;
33780;SDS011;20097;50.832;19.100;2023-06-04T23:14:41;3.08;;;2.20;;
33780;SDS011;20097;50.832;19.100;2023-06-04T23:19:46;5.03;;;2.47;;
33780;SDS011;20097;50.832;19.100;2023-06-04T23:24:52;7.07;;;2.60;;
33780;SDS011;20097;50.832;19.100;2023-06-04T23:29:57;5.07;;;3.00;;
33780;SDS011;20097;50.832;19.100;2023-06-04T23:35:02;6.25;;;2.88;;
33780;SDS011;20097;50.832;19.100;2023-06-04T23:40:08;5.88;;;2.80;;
33780;SDS011;20097;50.832;19.100;2023-06-04T23:45:14;3.83;;;2.38;;
33780;SDS011;20097;50.832;19.100;2023-06-04T23:50:18;3.92;;;2.75;;
33780;SDS011;20097;50.832;19.100;2023-06-04T23:55:24;5.32;;;3.08;;
